• Join FlightAware (Why Join?)
  • Login
  • US Flag 
09:03PM EDT


 

Airport Tracker/Info


-or-


 

Live Flight TrackerFlight Track Log ✈ UCA3598 ✈ 11-Nov-2013 ✈ KIAD - KBGM

Flight Track Log - Related Links

Times and Time Zones

All times are in EST time to prevent confusion due to time zone crossing. See the UCA3598 flight status page for this flight to view local times or setup timezone preferences in your user account.

Time Position Orientation Groundspeed Altitude Reporting Facility
EST Latitude Longitude Course Direction KTS MPH feet Rate Location/Type
10:21PM 38.9833 -77.5333 North 170 196 2,500  Level Potomac TRACON
10:22PM 39.0333 -77.5333 360° North 189 217 3,900 1,440 Climbing Potomac TRACON
10:23PM 39.0833 -77.5500 345° North 190 219 5,400 1,680 Climbing Potomac TRACON
10:25PM 39.1725 -77.5594 355° North 178 205 9,200 1,800 Climbing Washington Center
10:26PM 39.2206 -77.5472 11° North 178 205 11,100 1,380 Climbing Washington Center
10:27PM 39.3262 -77.2956 North  Level Estimated
10:27PM 39.2728 -77.5353 10° North 183 211 12,000  Level Washington Center
10:28PM 39.3397 -77.5211 North 207 238 12,000  Level Washington Center
10:29PM 39.4172 -77.5017 11° North 246 283 12,000  Level Washington Center
10:30PM 39.4944 -77.4875 North 271 312 12,000  Level Washington Center
10:31PM 39.5700 -77.4706 10° North 277 319 12,100 660 Climbing Washington Center
10:33PM 39.6969 -77.4544 North 225 259 14,000 720 Climbing New York Center
10:34PM 39.7742 -77.4539 360° North 237 273 14,200 660 Climbing New York Center
10:35PM 39.8389 -77.4519 North 250 288 15,300 900 Climbing New York Center
10:36PM 39.9119 -77.4128 22° Northeast 250 288 16,000 600 Climbing New York Center
10:37PM 39.9786 -77.3783 22° Northeast 269 310 16,500 840 Climbing New York Center
10:38PM 40.0539 -77.3367 23° Northeast 274 315 17,700 1,020 Climbing New York Center
10:39PM 40.1161 -77.3047 21° North 263 303 18,600 660 Climbing New York Center
10:40PM 40.1936 -77.2603 24° Northeast 263 303 19,000 180 Climbing New York Center
10:41PM 40.2603 -77.2231 23° Northeast 274 315 19,000  Level New York Center
10:42PM 40.3461 -77.1764 23° Northeast 281 323 19,000  Level New York Center
10:43PM 40.4147 -77.1392 22° Northeast 287 330 19,000  Level New York Center
10:44PM 40.4967 -77.0922 24° Northeast 292 336 19,000 -180 Level New York Center
10:45PM 40.5675 -77.0522 23° Northeast 298 343 18,700 -420 Descending New York Center
10:46PM 40.6578 -77.0031 22° Northeast 303 349 18,200 -420 Descending New York Center
10:47PM 40.7308 -76.9603 24° Northeast 309 356 17,900 -300 Descending New York Center
10:48PM 40.8186 -76.9133 22° Northeast 309 356 17,600 -480 Descending New York Center
10:49PM 40.8894 -76.8731 23° Northeast 304 350 17,000 -660 Descending New York Center
10:50PM 40.9756 -76.8231 24° Northeast 304 350 16,400 -600 Descending New York Center
10:51PM 41.0506 -76.7775 25° Northeast 304 350 15,800 -600 Descending New York Center
10:52PM 41.1278 -76.7375 21° North 304 350 15,200 -360 Descending New York Center
10:53PM 41.2008 -76.6942 24° Northeast 299 344 15,100 -180 Descending New York Center
10:54PM 41.2694 -76.6533 24° Northeast 281 323 14,900 -480 Descending New York Center
10:55PM 41.3422 -76.6128 23° Northeast 276 318 14,200 -720 Descending New York Center
10:56PM 41.4153 -76.5692 24° Northeast 276 318 13,500 -780 Descending New York Center
10:57PM 41.4817 -76.5306 24° Northeast 282 325 12,700 -960 Descending New York Center
10:58PM 41.5672 -76.4825 23° Northeast 287 330 11,700 -960 Descending New York Center
10:59PM 41.6422 -76.4392 23° Northeast 292 336 10,800 -840 Descending New York Center
11:00PM 41.7153 -76.3953 24° Northeast 282 325 10,000 -960 Descending New York Center
11:01PM 41.7772 -76.3614 22° Northeast 270 311 9,000 -960 Descending New York Center
11:02PM 41.8414 -76.3222 24° Northeast 258 297 8,100 -900 Descending New York Center
11:03PM 41.8864 -76.2508 50° Northeast 238 274 7,200 -1,080 Descending New York Center
11:04PM 41.9086 -76.1747 69° East 219 252 6,000 -1,200 Descending New York Center
11:05PM 41.9267 -76.0981 72° East 214 246 4,900 -1,020 Descending New York Center
11:06PM 41.9422 -76.0297 73° East 209 241 4,000 -480 Descending New York Center
11:07PM 41.9597 -75.9642 70° East 198 228 4,000  Level New York Center
11:08PM 41.9775 -75.8875 73° East 193 222 4,000 -60 Level New York Center
11:09PM 42.0072 -75.8283 56° Northeast 198 228 3,900 -60 Descending New York Center
11:10PM 42.0419 -75.8422 343° North 137 158 3,900  Level New York Center
11:11PM 42.0700 -75.8667 327° Northwest 118 136 3,900  Level New York Center
11:13PM 42.0797 -75.9877 276° West  Level FlightAware Approximate
11:20PM 42.2000 -75.9667 North  Level FlightAware Approximate
11:21PM 42.2084 -75.9796 North  Level Estimated
11:22PM 42.2084 -75.9796 North  Level Estimated